sensor_id;sensor_type;location;lat;lon;timestamp;pressure;altitude;pressure_sealevel;temperature;humidity
9187;BME280;7273;48.902;9.410;2023-03-01T00:01:13;98790.94;;;0.68;nan
9187;BME280;7273;48.902;9.410;2023-03-01T00:03:38;98792.97;;;0.66;nan
9187;BME280;7273;48.902;9.410;2023-03-01T00:06:05;98795.03;;;0.64;nan
9187;BME280;7273;48.902;9.410;2023-03-01T00:08:31;98782.53;;;0.64;nan
9187;BME280;7273;48.902;9.410;2023-03-01T00:11:21;98794.09;;;0.50;nan
9187;BME280;7273;48.902;9.410;2023-03-01T00:13:50;98789.44;;;0.52;nan
9187;BME280;7273;48.902;9.410;2023-03-01T00:16:19;98790.41;;;0.51;nan
9187;BME280;7273;48.902;9.410;2023-03-01T00:18:45;98791.44;;;0.50;nan
9187;BME280;7273;48.902;9.410;2023-03-01T00:21:11;98796.13;;;0.48;nan
9187;BME280;7273;48.902;9.410;2023-03-01T00:23:37;98796.13;;;0.48;nan
9187;BME280;7273;48.902;9.410;2023-03-01T00:26:06;98795.09;;;0.49;nan
9187;BME280;7273;48.902;9.410;2023-03-01T00:28:32;98798.22;;;0.53;nan
9187;BME280;7273;48.902;9.410;2023-03-01T00:33:30;98802.94;;;0.51;nan
9187;BME280;7273;48.902;9.410;2023-03-01T00:35:58;98798.59;;;0.50;nan
9187;BME280;7273;48.902;9.410;2023-03-01T00:38:24;98794.09;;;0.50;nan
9187;BME280;7273;48.902;9.410;2023-03-01T00:40:49;98798.59;;;0.50;nan
9187;BME280;7273;48.902;9.410;2023-03-01T00:43:14;98796.53;;;0.45;nan
9187;BME280;7273;48.902;9.410;2023-03-01T00:45:40;98794.69;;;0.46;nan
9187;BME280;7273;48.902;9.410;2023-03-01T00:48:05;98783.88;;;0.47;nan
9187;BME280;7273;48.902;9.410;2023-03-01T00:50:30;98785.44;;;0.42;nan
9187;BME280;7273;48.902;9.410;2023-03-01T00:52:56;98786.09;;;0.44;nan
9187;BME280;7273;48.902;9.410;2023-03-01T00:55:22;98791.56;;;0.36;nan
9187;BME280;7273;48.902;9.410;2023-03-01T00:57:47;98782.75;;;0.35;nan
9187;BME280;7273;48.902;9.410;2023-03-01T01:00:13;98787.66;;;0.38;nan
9187;BME280;7273;48.902;9.410;2023-03-01T01:02:39;98792.19;;;0.38;nan
9187;BME280;7273;48.902;9.410;2023-03-01T01:05:05;98783.38;;;0.37;nan
9187;BME280;7273;48.902;9.410;2023-03-01T01:07:32;98789.44;;;0.31;nan
9187;BME280;7273;48.902;9.410;2023-03-01T01:09:57;98793.16;;;0.30;nan
9187;BME280;7273;48.902;9.410;2023-03-01T01:12:23;98789.28;;;0.33;nan
9187;BME280;7273;48.902;9.410;2023-03-01T01:14:48;98782.91;;;0.27;nan
9187;BME280;7273;48.902;9.410;2023-03-01T01:17:13;98784.34;;;0.30;nan
9187;BME280;7273;48.902;9.410;2023-03-01T01:19:39;98786.94;;;0.23;nan
9187;BME280;7273;48.902;9.410;2023-03-01T01:22:04;98789.78;;;0.22;nan
9187;BME280;7273;48.902;9.410;2023-03-01T01:24:30;98784.09;;;0.25;nan
9187;BME280;7273;48.902;9.410;2023-03-01T01:26:55;98779.81;;;0.24;nan
9187;BME280;7273;48.902;9.410;2023-03-01T01:29:21;98776.50;;;0.22;nan
9187;BME280;7273;48.902;9.410;2023-03-01T01:31:46;98767.09;;;0.19;nan
9187;BME280;7273;48.902;9.410;2023-03-01T01:34:17;98763.59;;;0.19;nan
9187;BME280;7273;48.902;9.410;2023-03-01T01:36:44;98756.06;;;0.22;nan
9187;BME280;7273;48.902;9.410;2023-03-01T01:39:12;98748.47;;;0.19;nan
9187;BME280;7273;48.902;9.410;2023-03-01T01:41:40;98751.97;;;0.20;nan
9187;BME280;7273;48.902;9.410;2023-03-01T01:44:21;98746.41;;;0.15;nan
9187;BME280;7273;48.902;9.410;2023-03-01T01:49:36;98745.22;;;0.24;nan
9187;BME280;7273;48.902;9.410;2023-03-01T01:52:18;98746.50;;;0.28;nan
9187;BME280;7273;48.902;9.410;2023-03-01T01:57:24;98740.94;;;0.23;nan
9187;BME280;7273;48.902;9.410;2023-03-01T01:59:53;98743.00;;;0.27;nan
9187;BME280;7273;48.902;9.410;2023-03-01T02:02:20;98736.25;;;0.31;nan
9187;BME280;7273;48.902;9.410;2023-03-01T02:04:47;98726.44;;;0.32;nan
9187;BME280;7273;48.902;9.410;2023-03-01T02:07:16;98724.44;;;0.34;nan
9187;BME280;7273;48.902;9.410;2023-03-01T02:09:46;98725.47;;;0.33;nan
9187;BME280;7273;48.902;9.410;2023-03-01T02:12:13;98722.78;;;0.33;nan
9187;BME280;7273;48.902;9.410;2023-03-01T02:14:38;98714.63;;;0.34;nan
9187;BME280;7273;48.902;9.410;2023-03-01T02:17:04;98715.81;;;0.32;nan
9187;BME280;7273;48.902;9.410;2023-03-01T02:20:15;98716.66;;;0.32;nan
9187;BME280;7273;48.902;9.410;2023-03-01T02:22:30;98707.63;;;0.33;nan
9187;BME280;7273;48.902;9.410;2023-03-01T02:25:04;98711.97;;;0.34;nan
9187;BME280;7273;48.902;9.410;2023-03-01T02:30:28;98696.59;;;0.36;nan
9187;BME280;7273;48.902;9.410;2023-03-01T02:32:56;98695.41;;;0.39;nan
9187;BME280;7273;48.902;9.410;2023-03-01T02:35:30;98694.19;;;0.41;nan
9187;BME280;7273;48.902;9.410;2023-03-01T02:37:57;98687.66;;;0.44;nan
9187;BME280;7273;48.902;9.410;2023-03-01T02:40:28;98689.28;;;0.45;nan
9187;BME280;7273;48.902;9.410;2023-03-01T02:42:56;98692.38;;;0.48;nan
9187;BME280;7273;48.902;9.410;2023-03-01T02:45:22;98686.88;;;0.50;nan
9187;BME280;7273;48.902;9.410;2023-03-01T02:47:48;98681.34;;;0.51;nan
9187;BME280;7273;48.902;9.410;2023-03-01T02:51:24;98685.22;;;0.49;nan
9187;BME280;7273;48.902;9.410;2023-03-01T02:56:18;98684.19;;;0.50;nan
9187;BME280;7273;48.902;9.410;2023-03-01T02:58:44;98682.19;;;0.52;nan
9187;BME280;7273;48.902;9.410;2023-03-01T03:01:17;98680.75;;;0.56;nan
9187;BME280;7273;48.902;9.410;2023-03-01T03:03:43;98684.44;;;0.55;nan
9187;BME280;7273;48.902;9.410;2023-03-01T03:06:08;98672.38;;;0.52;nan
9187;BME280;7273;48.902;9.410;2023-03-01T03:08:34;98672.13;;;0.47;nan
9187;BME280;7273;48.902;9.410;2023-03-01T03:10:59;98666.84;;;0.54;nan
9187;BME280;7273;48.902;9.410;2023-03-01T03:13:25;98662.31;;;0.54;nan
9187;BME280;7273;48.902;9.410;2023-03-01T03:15:54;98666.00;;;0.53;nan
9187;BME280;7273;48.902;9.410;2023-03-01T03:18:20;98659.44;;;0.49;nan
9187;BME280;7273;48.902;9.410;2023-03-01T03:20:46;98653.31;;;0.49;nan
9187;BME280;7273;48.902;9.410;2023-03-01T03:23:11;98661.28;;;0.49;nan
9187;BME280;7273;48.902;9.410;2023-03-01T03:25:37;98664.59;;;0.51;nan
9187;BME280;7273;48.902;9.410;2023-03-01T03:28:04;98660.69;;;0.53;nan
9187;BME280;7273;48.902;9.410;2023-03-01T03:30:35;98665.59;;;0.50;nan
9187;BME280;7273;48.902;9.410;2023-03-01T03:33:01;98658.81;;;0.47;nan
9187;BME280;7273;48.902;9.410;2023-03-01T03:35:32;98659.03;;;0.46;nan
9187;BME280;7273;48.902;9.410;2023-03-01T03:37:59;98652.25;;;0.43;nan
9187;BME280;7273;48.902;9.410;2023-03-01T03:40:38;98654.75;;;0.51;nan
9187;BME280;7273;48.902;9.410;2023-03-01T03:43:05;98655.13;;;0.48;nan
9187;BME280;7273;48.902;9.410;2023-03-01T03:45:31;98650.03;;;0.47;nan
9187;BME280;7273;48.902;9.410;2023-03-01T03:47:59;98656.59;;;0.51;nan
9187;BME280;7273;48.902;9.410;2023-03-01T03:50:25;98643.47;;;0.49;nan
9187;BME280;7273;48.902;9.410;2023-03-01T03:52:50;98644.28;;;0.43;nan
9187;BME280;7273;48.902;9.410;2023-03-01T03:55:16;98642.44;;;0.44;nan
9187;BME280;7273;48.902;9.410;2023-03-01T03:57:45;98640.41;;;0.46;nan
9187;BME280;7273;48.902;9.410;2023-03-01T04:00:19;98636.28;;;0.43;nan
9187;BME280;7273;48.902;9.410;2023-03-01T04:02:46;98629.38;;;0.49;nan
9187;BME280;7273;48.902;9.410;2023-03-01T04:05:14;98626.72;;;0.49;nan
9187;BME280;7273;48.902;9.410;2023-03-01T04:07:40;98629.16;;;0.50;nan
9187;BME280;7273;48.902;9.410;2023-03-01T04:10:09;98625.69;;;0.56;nan
9187;BME280;7273;48.902;9.410;2023-03-01T04:12:35;98623.66;;;0.52;nan
9187;BME280;7273;48.902;9.410;2023-03-01T04:15:02;98628.56;;;0.55;nan
9187;BME280;7273;48.902;9.410;2023-03-01T04:17:40;98623.66;;;0.58;nan
9187;BME280;7273;48.902;9.410;2023-03-01T04:20:10;98629.00;;;0.58;nan
9187;BME280;7273;48.902;9.410;2023-03-01T04:22:38;98625.72;;;0.63;nan
9187;BME280;7273;48.902;9.410;2023-03-01T04:25:04;98626.94;;;0.54;nan
9187;BME280;7273;48.902;9.410;2023-03-01T04:27:33;98620.59;;;0.61;nan
9187;BME280;7273;48.902;9.410;2023-03-01T04:29:58;98622.44;;;0.61;nan
9187;BME280;7273;48.902;9.410;2023-03-01T04:32:24;98617.75;;;0.63;nan
9187;BME280;7273;48.902;9.410;2023-03-01T04:34:49;98618.78;;;0.62;nan
9187;BME280;7273;48.902;9.410;2023-03-01T04:37:15;98625.28;;;0.59;nan
9187;BME280;7273;48.902;9.410;2023-03-01T04:39:41;98619.19;;;0.59;nan
9187;BME280;7273;48.902;9.410;2023-03-01T04:42:11;98623.91;;;0.63;nan
9187;BME280;7273;48.902;9.410;2023-03-01T04:44:37;98626.97;;;0.67;nan
9187;BME280;7273;48.902;9.410;2023-03-01T04:47:02;98628.41;;;0.69;nan
9187;BME280;7273;48.902;9.410;2023-03-01T04:49:28;98637.41;;;0.68;nan
9187;BME280;7273;48.902;9.410;2023-03-01T04:51:53;98627.19;;;0.72;nan
9187;BME280;7273;48.902;9.410;2023-03-01T04:54:18;98627.97;;;0.66;nan
9187;BME280;7273;48.902;9.410;2023-03-01T04:56:44;98631.28;;;0.68;nan
9187;BME280;7273;48.902;9.410;2023-03-01T04:59:09;98632.09;;;0.68;nan
9187;BME280;7273;48.902;9.410;2023-03-01T05:01:35;98628.19;;;0.71;nan
9187;BME280;7273;48.902;9.410;2023-03-01T05:04:01;98635.75;;;0.67;nan
9187;BME280;7273;48.902;9.410;2023-03-01T05:06:28;98633.31;;;0.72;nan
9187;BME280;7273;48.902;9.410;2023-03-01T05:08:54;98629.66;;;0.73;nan
9187;BME280;7273;48.902;9.410;2023-03-01T05:11:19;98626.16;;;0.73;nan
9187;BME280;7273;48.902;9.410;2023-03-01T05:13:45;98623.50;;;0.73;nan
9187;BME280;7273;48.902;9.410;2023-03-01T05:16:10;98627.41;;;0.70;nan
9187;BME280;7273;48.902;9.410;2023-03-01T05:18:37;98617.75;;;0.69;nan
9187;BME280;7273;48.902;9.410;2023-03-01T05:21:08;98623.28;;;0.68;nan
9187;BME280;7273;48.902;9.410;2023-03-01T05:23:34;98610.81;;;0.68;nan
9187;BME280;7273;48.902;9.410;2023-03-01T05:26:01;98610.19;;;0.66;nan
9187;BME280;7273;48.902;9.410;2023-03-01T05:28:27;98613.66;;;0.67;nan
9187;BME280;7273;48.902;9.410;2023-03-01T05:30:54;98612.63;;;0.61;nan
9187;BME280;7273;48.902;9.410;2023-03-01T05:33:19;98613.25;;;0.63;nan
9187;BME280;7273;48.902;9.410;2023-03-01T05:35:48;98617.94;;;0.61;nan
9187;BME280;7273;48.902;9.410;2023-03-01T05:38:15;98620.59;;;0.61;nan
9187;BME280;7273;48.902;9.410;2023-03-01T05:40:41;98613.84;;;0.59;nan
9187;BME280;7273;48.902;9.410;2023-03-01T05:43:08;98614.84;;;0.58;nan
9187;BME280;7273;48.902;9.410;2023-03-01T05:45:37;98619.16;;;0.52;nan
9187;BME280;7273;48.902;9.410;2023-03-01T05:48:03;98614.63;;;0.53;nan
9187;BME280;7273;48.902;9.410;2023-03-01T05:50:32;98607.28;;;0.55;nan
9187;BME280;7273;48.902;9.410;2023-03-01T05:53:02;98609.75;;;0.56;nan
9187;BME280;7273;48.902;9.410;2023-03-01T05:55:30;98606.25;;;0.56;nan
9187;BME280;7273;48.902;9.410;2023-03-01T05:57:58;98604.63;;;0.55;nan
9187;BME280;7273;48.902;9.410;2023-03-01T06:00:24;98600.53;;;0.52;nan
9187;BME280;7273;48.902;9.410;2023-03-01T06:02:49;98609.09;;;0.48;nan
9187;BME280;7273;48.902;9.410;2023-03-01T06:05:17;98605.63;;;0.47;nan
9187;BME280;7273;48.902;9.410;2023-03-01T06:07:42;98612.34;;;0.43;nan
9187;BME280;7273;48.902;9.410;2023-03-01T06:10:09;98602.75;;;0.42;nan
9187;BME280;7273;48.902;9.410;2023-03-01T06:12:36;98605.81;;;0.46;nan
9187;BME280;7273;48.902;9.410;2023-03-01T06:15:03;98609.50;;;0.45;nan
9187;BME280;7273;48.902;9.410;2023-03-01T06:17:31;98611.91;;;0.40;nan
9187;BME280;7273;48.902;9.410;2023-03-01T06:19:56;98609.66;;;0.37;nan
9187;BME280;7273;48.902;9.410;2023-03-01T06:22:22;98608.03;;;0.36;nan
9187;BME280;7273;48.902;9.410;2023-03-01T06:24:47;98613.13;;;0.31;nan
9187;BME280;7273;48.902;9.410;2023-03-01T06:27:12;98611.22;;;0.25;nan
9187;BME280;7273;48.902;9.410;2023-03-01T06:29:38;98609.81;;;0.22;nan
9187;BME280;7273;48.902;9.410;2023-03-01T06:32:03;98611.63;;;0.22;nan
9187;BME280;7273;48.902;9.410;2023-03-01T06:34:29;98607.53;;;0.19;nan
9187;BME280;7273;48.902;9.410;2023-03-01T06:36:55;98616.34;;;0.20;nan
9187;BME280;7273;48.902;9.410;2023-03-01T06:39:20;98610.81;;;0.15;nan
9187;BME280;7273;48.902;9.410;2023-03-01T06:41:45;98619.97;;;0.12;nan
9187;BME280;7273;48.902;9.410;2023-03-01T06:44:11;98616.88;;;0.09;nan
9187;BME280;7273;48.902;9.410;2023-03-01T06:46:36;98613.19;;;0.03;nan
9187;BME280;7273;48.902;9.410;2023-03-01T06:49:02;98609.31;;;0.06;nan
9187;BME280;7273;48.902;9.410;2023-03-01T06:51:32;98611.13;;;0.05;nan
9187;BME280;7273;48.902;9.410;2023-03-01T06:53:58;98610.13;;;0.06;nan
9187;BME280;7273;48.902;9.410;2023-03-01T06:56:23;98602.78;;;0.08;nan
9187;BME280;7273;48.902;9.410;2023-03-01T06:58:49;98607.09;;;0.09;nan
9187;BME280;7273;48.902;9.410;2023-03-01T07:01:14;98601.97;;;0.08;nan
9187;BME280;7273;48.902;9.410;2023-03-01T07:03:39;98603.59;;;0.09;nan
9187;BME280;7273;48.902;9.410;2023-03-01T07:06:05;98600.97;;;0.15;nan
9187;BME280;7273;48.902;9.410;2023-03-01T07:08:30;98603.44;;;0.17;nan
9187;BME280;7273;48.902;9.410;2023-03-01T07:10:57;98602.22;;;0.19;nan
9187;BME280;7273;48.902;9.410;2023-03-01T07:13:22;98604.50;;;0.22;nan
9187;BME280;7273;48.902;9.410;2023-03-01T07:15:48;98596.72;;;0.21;nan
9187;BME280;7273;48.902;9.410;2023-03-01T07:18:13;98597.91;;;0.18;nan
9187;BME280;7273;48.902;9.410;2023-03-01T07:20:38;98600.19;;;0.21;nan
9187;BME280;7273;48.902;9.410;2023-03-01T07:23:05;98605.13;;;0.24;nan
9187;BME280;7273;48.902;9.410;2023-03-01T07:25:31;98595.31;;;0.31;nan
9187;BME280;7273;48.902;9.410;2023-03-01T07:27:57;98594.75;;;0.36;nan
9187;BME280;7273;48.902;9.410;2023-03-01T07:30:24;98594.34;;;0.39;nan
9187;BME280;7273;48.902;9.410;2023-03-01T07:32:51;98587.59;;;0.43;nan
9187;BME280;7273;48.902;9.410;2023-03-01T07:35:17;98595.38;;;0.38;nan
9187;BME280;7273;48.902;9.410;2023-03-01T07:37:43;98589.88;;;0.46;nan
9187;BME280;7273;48.902;9.410;2023-03-01T07:40:09;98582.09;;;0.44;nan
9187;BME280;7273;48.902;9.410;2023-03-01T07:42:34;98587.41;;;0.44;nan
9187;BME280;7273;48.902;9.410;2023-03-01T07:45:00;98593.56;;;0.51;nan
9187;BME280;7273;48.902;9.410;2023-03-01T07:47:25;98585.59;;;0.58;nan
9187;BME280;7273;48.902;9.410;2023-03-01T07:49:50;98585.41;;;0.66;nan
9187;BME280;7273;48.902;9.410;2023-03-01T07:52:16;98580.72;;;0.68;nan
9187;BME280;7273;48.902;9.410;2023-03-01T07:54:42;98585.41;;;0.72;nan
9187;BME280;7273;48.902;9.410;2023-03-01T07:57:09;98575.19;;;0.76;nan
9187;BME280;7273;48.902;9.410;2023-03-01T07:59:34;98578.28;;;0.79;nan
9187;BME280;7273;48.902;9.410;2023-03-01T08:02:00;98575.22;;;0.89;nan
9187;BME280;7273;48.902;9.410;2023-03-01T08:04:25;98565.00;;;0.92;nan
9187;BME280;7273;48.902;9.410;2023-03-01T08:06:52;98567.25;;;1.02;nan
9187;BME280;7273;48.902;9.410;2023-03-01T08:09:18;98562.13;;;1.07;nan
9187;BME280;7273;48.902;9.410;2023-03-01T08:11:43;98575.88;;;1.43;nan
9187;BME280;7273;48.902;9.410;2023-03-01T08:14:09;98560.00;;;1.94;nan
9187;BME280;7273;48.902;9.410;2023-03-01T08:16:36;98559.94;;;2.57;nan
9187;BME280;7273;48.902;9.410;2023-03-01T08:19:05;98563.25;;;3.46;nan
9187;BME280;7273;48.902;9.410;2023-03-01T08:21:31;98563.84;;;4.27;nan
9187;BME280;7273;48.902;9.410;2023-03-01T08:23:57;98566.13;;;4.89;nan
9187;BME280;7273;48.902;9.410;2023-03-01T08:26:22;98562.06;;;5.51;nan
9187;BME280;7273;48.902;9.410;2023-03-01T08:28:49;98553.97;;;6.32;nan
9187;BME280;7273;48.902;9.410;2023-03-01T08:33:59;98559.28;;;6.95;nan
9187;BME280;7273;48.902;9.410;2023-03-01T08:36:28;98559.03;;;7.41;nan
9187;BME280;7273;48.902;9.410;2023-03-01T08:38:53;98555.25;;;7.58;nan
9187;BME280;7273;48.902;9.410;2023-03-01T08:41:20;98554.47;;;8.12;nan
9187;BME280;7273;48.902;9.410;2023-03-01T08:43:45;98553.00;;;8.43;nan
9187;BME280;7273;48.902;9.410;2023-03-01T08:46:11;98548.38;;;8.60;nan
9187;BME280;7273;48.902;9.410;2023-03-01T08:48:37;98551.00;;;8.77;nan
9187;BME280;7273;48.902;9.410;2023-03-01T08:51:17;98550.25;;;9.08;nan
9187;BME280;7273;48.902;9.410;2023-03-01T08:53:43;98542.44;;;9.38;nan
9187;BME280;7273;48.902;9.410;2023-03-01T08:56:09;98551.69;;;9.47;nan
9187;BME280;7273;48.902;9.410;2023-03-01T08:58:35;98539.03;;;9.47;nan
9187;BME280;7273;48.902;9.410;2023-03-01T09:01:16;98544.41;;;9.47;nan
9187;BME280;7273;48.902;9.410;2023-03-01T09:03:42;98534.66;;;9.78;nan
9187;BME280;7273;48.902;9.410;2023-03-01T09:06:08;98540.16;;;9.93;nan
9187;BME280;7273;48.902;9.410;2023-03-01T09:08:35;98528.69;;;10.13;nan
9187;BME280;7273;48.902;9.410;2023-03-01T09:11:02;98523.41;;;9.91;nan
9187;BME280;7273;48.902;9.410;2023-03-01T09:13:28;98523.19;;;10.03;nan
9187;BME280;7273;48.902;9.410;2023-03-01T09:15:56;98524.41;;;9.80;nan
9187;BME280;7273;48.902;9.410;2023-03-01T09:18:22;98525.44;;;10.11;nan
9187;BME280;7273;48.902;9.410;2023-03-01T09:20:47;98521.72;;;10.27;nan
9187;BME280;7273;48.902;9.410;2023-03-01T09:23:12;98515.97;;;10.13;nan
9187;BME280;7273;48.902;9.410;2023-03-01T09:25:38;98507.19;;;10.43;nan
9187;BME280;7273;48.902;9.410;2023-03-01T09:28:03;98501.59;;;10.59;nan
9187;BME280;7273;48.902;9.410;2023-03-01T09:30:29;98502.66;;;10.53;nan
9187;BME280;7273;48.902;9.410;2023-03-01T09:32:56;98491.63;;;10.70;nan
9187;BME280;7273;48.902;9.410;2023-03-01T09:35:21;98496.63;;;10.36;nan
9187;BME280;7273;48.902;9.410;2023-03-01T09:37:47;98490.78;;;10.64;nan
9187;BME280;7273;48.902;9.410;2023-03-01T09:40:18;98493.47;;;10.59;nan
9187;BME280;7273;48.902;9.410;2023-03-01T09:42:59;98491.56;;;10.55;nan
9187;BME280;7273;48.902;9.410;2023-03-01T09:45:34;98494.88;;;10.72;nan
9187;BME280;7273;48.902;9.410;2023-03-01T09:48:01;98489.13;;;10.48;nan
9187;BME280;7273;48.902;9.410;2023-03-01T09:50:33;98492.34;;;10.45;nan
9187;BME280;7273;48.902;9.410;2023-03-01T09:56:09;98468.72;;;10.16;nan
9187;BME280;7273;48.902;9.410;2023-03-01T10:01:44;98475.53;;;9.82;nan
9187;BME280;7273;48.902;9.410;2023-03-01T10:09:38;98470.75;;;9.52;nan
9187;BME280;7273;48.902;9.410;2023-03-01T10:12:13;98469.22;;;9.66;nan
9187;BME280;7273;48.902;9.410;2023-03-01T10:17:26;98454.25;;;10.00;nan
9187;BME280;7273;48.902;9.410;2023-03-01T10:19:55;98458.69;;;10.11;nan
9187;BME280;7273;48.902;9.410;2023-03-01T10:22:28;98449.69;;;10.72;nan
9187;BME280;7273;48.902;9.410;2023-03-01T10:24:58;98437.78;;;10.83;nan
9187;BME280;7273;48.902;9.410;2023-03-01T10:27:26;98434.28;;;10.78;nan
9187;BME280;7273;48.902;9.410;2023-03-01T10:30:05;98429.97;;;11.32;nan
9187;BME280;7273;48.902;9.410;2023-03-01T10:32:36;98424.00;;;11.55;nan
9187;BME280;7273;48.902;9.410;2023-03-01T10:35:16;98417.97;;;11.83;nan
9187;BME280;7273;48.902;9.410;2023-03-01T10:38:03;98418.25;;;11.77;nan
9187;BME280;7273;48.902;9.410;2023-03-01T10:40:30;98419.38;;;11.46;nan
9187;BME280;7273;48.902;9.410;2023-03-01T10:43:01;98412.63;;;11.33;nan
9187;BME280;7273;48.902;9.410;2023-03-01T10:50:40;98416.91;;;10.59;nan
9187;BME280;7273;48.902;9.410;2023-03-01T10:53:20;98421.78;;;10.47;nan
9187;BME280;7273;48.902;9.410;2023-03-01T10:55:46;98410.25;;;10.00;nan
9187;BME280;7273;48.902;9.410;2023-03-01T11:03:30;98403.13;;;9.79;nan
9187;BME280;7273;48.902;9.410;2023-03-01T11:06:28;98390.06;;;10.12;nan
9187;BME280;7273;48.902;9.410;2023-03-01T11:08:54;98394.19;;;10.40;nan
9187;BME280;7273;48.902;9.410;2023-03-01T11:11:32;98389.91;;;10.94;nan
9187;BME280;7273;48.902;9.410;2023-03-01T11:14:12;98382.81;;;11.48;nan
9187;BME280;7273;48.902;9.410;2023-03-01T11:16:40;98382.41;;;12.54;nan
9187;BME280;7273;48.902;9.410;2023-03-01T11:21:59;98367.78;;;13.98;nan
9187;BME280;7273;48.902;9.410;2023-03-01T11:24:43;98367.31;;;14.56;nan
9187;BME280;7273;48.902;9.410;2023-03-01T11:27:16;98366.09;;;14.81;nan
9187;BME280;7273;48.902;9.410;2023-03-01T11:29:47;98368.25;;;15.16;nan
9187;BME280;7273;48.902;9.410;2023-03-01T11:32:16;98359.94;;;15.08;nan
9187;BME280;7273;48.902;9.410;2023-03-01T11:34:54;98348.19;;;15.85;nan
9187;BME280;7273;48.902;9.410;2023-03-01T11:37:32;98349.91;;;16.44;nan
9187;BME280;7273;48.902;9.410;2023-03-01T11:42:50;98349.78;;;17.20;nan
9187;BME280;7273;48.902;9.410;2023-03-01T11:45:23;98343.28;;;17.69;nan
9187;BME280;7273;48.902;9.410;2023-03-01T11:50:54;98326.94;;;17.77;nan
9187;BME280;7273;48.902;9.410;2023-03-01T11:53:26;98319.25;;;17.26;nan
9187;BME280;7273;48.902;9.410;2023-03-01T11:58:56;98313.28;;;16.09;nan
9187;BME280;7273;48.902;9.410;2023-03-01T12:07:42;98309.13;;;13.92;nan
9187;BME280;7273;48.902;9.410;2023-03-01T12:10:22;98301.81;;;13.45;nan
9187;BME280;7273;48.902;9.410;2023-03-01T12:15:51;98290.09;;;12.92;nan
9187;BME280;7273;48.902;9.410;2023-03-01T12:29:52;98270.31;;;11.81;nan
9187;BME280;7273;48.902;9.410;2023-03-01T12:38:31;98253.31;;;11.65;nan
9187;BME280;7273;48.902;9.410;2023-03-01T12:43:56;98248.56;;;11.32;nan
9187;BME280;7273;48.902;9.410;2023-03-01T12:49:15;98238.78;;;11.36;nan
9187;BME280;7273;48.902;9.410;2023-03-01T12:51:56;98225.78;;;11.43;nan
9187;BME280;7273;48.902;9.410;2023-03-01T12:54:35;98218.75;;;11.37;nan
9187;BME280;7273;48.902;9.410;2023-03-01T12:57:14;98218.75;;;11.37;nan
9187;BME280;7273;48.902;9.410;2023-03-01T13:05:56;98213.41;;;11.22;nan
9187;BME280;7273;48.902;9.410;2023-03-01T13:11:05;98216.13;;;11.22;nan
9187;BME280;7273;48.902;9.410;2023-03-01T13:13:36;98212.31;;;11.18;nan
9187;BME280;7273;48.902;9.410;2023-03-01T13:18:48;98207.50;;;11.00;nan
9187;BME280;7273;48.902;9.410;2023-03-01T13:21:28;98204.81;;;11.00;nan
9187;BME280;7273;48.902;9.410;2023-03-01T13:23:55;98214.03;;;10.89;nan
9187;BME280;7273;48.902;9.410;2023-03-01T13:26:20;98212.44;;;10.93;nan
9187;BME280;7273;48.902;9.410;2023-03-01T13:28:57;98214.88;;;10.84;nan
9187;BME280;7273;48.902;9.410;2023-03-01T13:33:56;98206.19;;;10.88;nan
9187;BME280;7273;48.902;9.410;2023-03-01T13:38:55;98202.19;;;10.80;nan
9187;BME280;7273;48.902;9.410;2023-03-01T13:46:45;98196.25;;;10.53;nan
9187;BME280;7273;48.902;9.410;2023-03-01T13:49:16;98199.78;;;10.28;nan
9187;BME280;7273;48.902;9.410;2023-03-01T13:51:46;98193.56;;;10.33;nan
9187;BME280;7273;48.902;9.410;2023-03-01T13:54:15;98196.53;;;10.31;nan
9187;BME280;7273;48.902;9.410;2023-03-01T13:56:41;98201.16;;;10.31;nan
9187;BME280;7273;48.902;9.410;2023-03-01T13:59:15;98194.13;;;10.40;nan
9187;BME280;7273;48.902;9.410;2023-03-01T14:01:41;98200.88;;;10.42;nan
9187;BME280;7273;48.902;9.410;2023-03-01T14:06:48;98189.81;;;10.29;nan
9187;BME280;7273;48.902;9.410;2023-03-01T14:14:17;98184.06;;;9.90;nan
9187;BME280;7273;48.902;9.410;2023-03-01T14:19:30;98183.81;;;9.72;nan
9187;BME280;7273;48.902;9.410;2023-03-01T14:24:27;98190.25;;;9.56;nan
9187;BME280;7273;48.902;9.410;2023-03-01T14:26:53;98189.09;;;9.36;nan
9187;BME280;7273;48.902;9.410;2023-03-01T14:29:38;98189.41;;;9.40;nan
9187;BME280;7273;48.902;9.410;2023-03-01T14:32:21;98206.38;;;9.35;nan
9187;BME280;7273;48.902;9.410;2023-03-01T14:34:49;98192.59;;;9.32;nan
9187;BME280;7273;48.902;9.410;2023-03-01T14:37:28;98204.53;;;9.41;nan
9187;BME280;7273;48.902;9.410;2023-03-01T14:39:56;98198.31;;;9.40;nan
9187;BME280;7273;48.902;9.410;2023-03-01T14:42:25;98217.19;;;9.40;nan
9187;BME280;7273;48.902;9.410;2023-03-01T14:44:54;98202.84;;;9.30;nan
9187;BME280;7273;48.902;9.410;2023-03-01T14:47:28;98215.50;;;9.19;nan
9187;BME280;7273;48.902;9.410;2023-03-01T14:50:22;98216.59;;;9.28;nan
9187;BME280;7273;48.902;9.410;2023-03-01T14:52:51;98223.91;;;9.23;nan
9187;BME280;7273;48.902;9.410;2023-03-01T14:55:18;98214.13;;;9.17;nan
9187;BME280;7273;48.902;9.410;2023-03-01T14:57:46;98227.06;;;9.10;nan
9187;BME280;7273;48.902;9.410;2023-03-01T15:00:22;98222.91;;;8.92;nan
9187;BME280;7273;48.902;9.410;2023-03-01T15:02:51;98212.38;;;8.86;nan
9187;BME280;7273;48.902;9.410;2023-03-01T15:05:23;98224.50;;;8.83;nan
9187;BME280;7273;48.902;9.410;2023-03-01T15:07:51;98223.91;;;8.76;nan
9187;BME280;7273;48.902;9.410;2023-03-01T15:10:24;98220.06;;;8.62;nan
9187;BME280;7273;48.902;9.410;2023-03-01T15:12:49;98219.47;;;8.55;nan
9187;BME280;7273;48.902;9.410;2023-03-01T15:17:55;98215.91;;;8.50;nan
9187;BME280;7273;48.902;9.410;2023-03-01T15:20:24;98228.81;;;8.43;nan
9187;BME280;7273;48.902;9.410;2023-03-01T15:22:51;98222.34;;;8.44;nan
9187;BME280;7273;48.902;9.410;2023-03-01T15:25:19;98218.91;;;8.53;nan
9187;BME280;7273;48.902;9.410;2023-03-01T15:27:46;98225.56;;;8.41;nan
9187;BME280;7273;48.902;9.410;2023-03-01T15:30:21;98214.53;;;8.42;nan
9187;BME280;7273;48.902;9.410;2023-03-01T15:32:47;98220.13;;;8.36;nan
9187;BME280;7273;48.902;9.410;2023-03-01T15:35:32;98211.78;;;8.37;nan
9187;BME280;7273;48.902;9.410;2023-03-01T15:37:59;98218.19;;;8.26;nan
9187;BME280;7273;48.902;9.410;2023-03-01T15:40:30;98213.75;;;8.20;nan
9187;BME280;7273;48.902;9.410;2023-03-01T15:45:26;98211.41;;;8.24;nan
9187;BME280;7273;48.902;9.410;2023-03-01T15:47:57;98209.16;;;8.15;nan
9187;BME280;7273;48.902;9.410;2023-03-01T15:52:49;98208.38;;;8.15;nan
9187;BME280;7273;48.902;9.410;2023-03-01T15:57:45;98206.38;;;8.05;nan
9187;BME280;7273;48.902;9.410;2023-03-01T16:00:12;98198.28;;;8.05;nan
9187;BME280;7273;48.902;9.410;2023-03-01T16:02:39;98201.72;;;7.96;nan
9187;BME280;7273;48.902;9.410;2023-03-01T16:05:08;98192.59;;;7.97;nan
9187;BME280;7273;48.902;9.410;2023-03-01T16:07:37;98188.78;;;7.93;nan
9187;BME280;7273;48.902;9.410;2023-03-01T16:10:05;98183.88;;;7.85;nan
9187;BME280;7273;48.902;9.410;2023-03-01T16:12:30;98179.84;;;7.87;nan